sensor_id;sensor_type;location;lat;lon;timestamp;noise_LAeq;noise_LA_min;noise_LA_max;noise_LA01;noise_LA95
72686;Laerm;61365;52.162;4.500;2022-11-09T00:01:41;46.93;37.25;52.42;;
72686;Laerm;61365;52.162;4.500;2022-11-09T00:04:09;46.98;36.34;52.57;;
72686;Laerm;61365;52.162;4.500;2022-11-09T00:06:36;47.05;36.57;52.56;;
72686;Laerm;61365;52.162;4.500;2022-11-09T00:09:05;46.87;38.08;52.34;;
72686;Laerm;61365;52.162;4.500;2022-11-09T00:11:32;46.97;37.77;52.78;;
72686;Laerm;61365;52.162;4.500;2022-11-09T00:13:58;46.89;37.55;52.63;;
72686;Laerm;61365;52.162;4.500;2022-11-09T00:16:24;46.65;35.85;52.61;;
72686;Laerm;61365;52.162;4.500;2022-11-09T00:18:51;46.71;36.50;52.19;;
72686;Laerm;61365;52.162;4.500;2022-11-09T00:21:21;46.64;37.91;52.57;;
72686;Laerm;61365;52.162;4.500;2022-11-09T00:23:49;46.60;37.35;52.20;;
72686;Laerm;61365;52.162;4.500;2022-11-09T00:26:17;46.78;36.21;52.74;;
72686;Laerm;61365;52.162;4.500;2022-11-09T00:28:45;46.76;37.31;52.49;;
72686;Laerm;61365;52.162;4.500;2022-11-09T00:31:21;46.81;36.43;52.99;;
72686;Laerm;61365;52.162;4.500;2022-11-09T00:33:51;46.56;36.48;52.22;;
72686;Laerm;61365;52.162;4.500;2022-11-09T00:36:19;46.62;36.66;52.80;;
72686;Laerm;61365;52.162;4.500;2022-11-09T00:38:52;46.61;36.57;52.25;;
72686;Laerm;61365;52.162;4.500;2022-11-09T00:41:19;46.69;37.48;52.74;;
72686;Laerm;61365;52.162;4.500;2022-11-09T00:43:48;46.75;37.46;52.31;;
72686;Laerm;61365;52.162;4.500;2022-11-09T00:46:15;46.68;37.79;52.28;;
72686;Laerm;61365;52.162;4.500;2022-11-09T00:48:42;46.54;38.24;52.72;;
72686;Laerm;61365;52.162;4.500;2022-11-09T00:51:10;46.76;36.58;52.05;;
72686;Laerm;61365;52.162;4.500;2022-11-09T00:53:37;46.62;36.34;52.96;;
72686;Laerm;61365;52.162;4.500;2022-11-09T00:56:08;46.44;36.48;52.17;;
72686;Laerm;61365;52.162;4.500;2022-11-09T00:58:37;46.43;35.63;52.12;;
72686;Laerm;61365;52.162;4.500;2022-11-09T01:01:15;46.54;36.73;52.13;;
72686;Laerm;61365;52.162;4.500;2022-11-09T01:03:44;46.43;37.51;52.37;;
72686;Laerm;61365;52.162;4.500;2022-11-09T01:06:21;46.36;34.62;51.89;;
72686;Laerm;61365;52.162;4.500;2022-11-09T01:08:48;46.47;37.43;52.49;;
72686;Laerm;61365;52.162;4.500;2022-11-09T01:11:17;46.46;36.52;51.46;;
72686;Laerm;61365;52.162;4.500;2022-11-09T01:13:45;46.83;37.73;52.00;;
72686;Laerm;61365;52.162;4.500;2022-11-09T01:16:17;46.66;37.03;51.95;;
72686;Laerm;61365;52.162;4.500;2022-11-09T01:18:43;46.67;37.06;52.40;;
72686;Laerm;61365;52.162;4.500;2022-11-09T01:21:12;46.75;37.44;52.60;;
72686;Laerm;61365;52.162;4.500;2022-11-09T01:23:39;47.05;38.60;52.45;;
72686;Laerm;61365;52.162;4.500;2022-11-09T01:26:11;46.76;37.85;53.08;;
72686;Laerm;61365;52.162;4.500;2022-11-09T01:28:38;46.76;36.81;52.27;;
72686;Laerm;61365;52.162;4.500;2022-11-09T01:31:12;46.98;38.25;52.50;;
72686;Laerm;61365;52.162;4.500;2022-11-09T01:33:39;46.73;37.05;53.03;;
72686;Laerm;61365;52.162;4.500;2022-11-09T01:36:10;46.83;38.68;52.53;;
72686;Laerm;61365;52.162;4.500;2022-11-09T01:38:37;46.77;37.64;52.47;;
72686;Laerm;61365;52.162;4.500;2022-11-09T01:41:06;46.83;37.17;53.41;;
72686;Laerm;61365;52.162;4.500;2022-11-09T01:43:34;46.62;36.90;51.99;;
72686;Laerm;61365;52.162;4.500;2022-11-09T01:51:23;46.95;37.72;52.51;;
72686;Laerm;61365;52.162;4.500;2022-11-09T01:54:01;47.02;37.71;52.25;;
72686;Laerm;61365;52.162;4.500;2022-11-09T01:56:30;46.79;38.32;52.92;;
72686;Laerm;61365;52.162;4.500;2022-11-09T01:59:06;46.73;36.46;52.45;;
72686;Laerm;61365;52.162;4.500;2022-11-09T02:01:35;46.70;36.43;52.59;;
72686;Laerm;61365;52.162;4.500;2022-11-09T02:04:11;46.75;36.48;52.43;;
72686;Laerm;61365;52.162;4.500;2022-11-09T02:06:39;46.68;35.50;52.38;;
72686;Laerm;61365;52.162;4.500;2022-11-09T02:11:45;46.92;36.58;52.60;;
72686;Laerm;61365;52.162;4.500;2022-11-09T02:14:12;47.38;38.20;53.01;;
72686;Laerm;61365;52.162;4.500;2022-11-09T02:16:40;46.68;37.12;52.57;;
72686;Laerm;61365;52.162;4.500;2022-11-09T02:19:07;46.49;36.21;52.07;;
72686;Laerm;61365;52.162;4.500;2022-11-09T02:21:33;46.51;34.86;52.09;;
72686;Laerm;61365;52.162;4.500;2022-11-09T02:24:00;46.50;37.11;52.47;;
72686;Laerm;61365;52.162;4.500;2022-11-09T02:29:06;47.13;37.90;52.37;;
72686;Laerm;61365;52.162;4.500;2022-11-09T02:31:40;46.97;37.87;52.95;;
72686;Laerm;61365;52.162;4.500;2022-11-09T02:34:12;46.71;38.40;51.97;;
72686;Laerm;61365;52.162;4.500;2022-11-09T02:36:40;46.88;37.84;53.03;;
72686;Laerm;61365;52.162;4.500;2022-11-09T02:39:10;46.59;36.52;52.25;;
72686;Laerm;61365;52.162;4.500;2022-11-09T02:42:05;46.58;38.25;51.89;;
72686;Laerm;61365;52.162;4.500;2022-11-09T02:44:45;46.64;38.68;52.22;;
72686;Laerm;61365;52.162;4.500;2022-11-09T02:47:13;47.21;37.84;52.80;;
72686;Laerm;61365;52.162;4.500;2022-11-09T02:49:39;46.79;39.06;53.31;;
72686;Laerm;61365;52.162;4.500;2022-11-09T02:52:06;46.70;38.26;52.51;;
72686;Laerm;61365;52.162;4.500;2022-11-09T02:54:32;46.85;37.26;52.22;;
72686;Laerm;61365;52.162;4.500;2022-11-09T02:56:59;46.92;37.47;52.49;;
72686;Laerm;61365;52.162;4.500;2022-11-09T02:59:25;46.71;38.14;52.11;;
72686;Laerm;61365;52.162;4.500;2022-11-09T03:01:51;46.59;37.32;52.41;;
72686;Laerm;61365;52.162;4.500;2022-11-09T03:04:18;46.48;37.50;51.72;;
72686;Laerm;61365;52.162;4.500;2022-11-09T03:06:44;46.47;37.32;52.60;;
72686;Laerm;61365;52.162;4.500;2022-11-09T03:09:11;46.44;36.02;51.82;;
72686;Laerm;61365;52.162;4.500;2022-11-09T03:11:40;46.45;37.37;51.92;;
72686;Laerm;61365;52.162;4.500;2022-11-09T03:14:07;46.57;37.56;51.75;;
72686;Laerm;61365;52.162;4.500;2022-11-09T03:16:36;46.79;36.03;52.54;;
72686;Laerm;61365;52.162;4.500;2022-11-09T03:19:04;46.92;37.38;52.07;;
72686;Laerm;61365;52.162;4.500;2022-11-09T03:21:30;46.61;36.69;52.10;;
72686;Laerm;61365;52.162;4.500;2022-11-09T03:23:57;46.49;37.31;53.35;;
72686;Laerm;61365;52.162;4.500;2022-11-09T03:26:23;46.69;37.45;52.44;;
72686;Laerm;61365;52.162;4.500;2022-11-09T03:28:49;46.81;37.05;52.00;;
72686;Laerm;61365;52.162;4.500;2022-11-09T03:31:16;46.71;37.92;52.65;;
72686;Laerm;61365;52.162;4.500;2022-11-09T03:33:42;46.83;38.29;52.82;;
72686;Laerm;61365;52.162;4.500;2022-11-09T03:36:09;46.72;37.16;52.62;;
72686;Laerm;61365;52.162;4.500;2022-11-09T03:38:36;46.74;38.52;52.38;;
72686;Laerm;61365;52.162;4.500;2022-11-09T03:41:02;46.89;37.81;52.41;;
72686;Laerm;61365;52.162;4.500;2022-11-09T03:43:29;46.74;36.86;51.90;;
72686;Laerm;61365;52.162;4.500;2022-11-09T03:45:56;46.75;36.72;52.89;;
72686;Laerm;61365;52.162;4.500;2022-11-09T03:48:22;46.57;35.62;54.67;;
72686;Laerm;61365;52.162;4.500;2022-11-09T03:50:49;46.63;35.67;52.13;;
72686;Laerm;61365;52.162;4.500;2022-11-09T03:53:15;46.45;38.14;51.71;;
72686;Laerm;61365;52.162;4.500;2022-11-09T03:55:42;46.61;38.01;52.51;;
72686;Laerm;61365;52.162;4.500;2022-11-09T03:58:10;46.44;37.91;52.50;;
72686;Laerm;61365;52.162;4.500;2022-11-09T04:00:37;46.53;37.61;53.92;;
72686;Laerm;61365;52.162;4.500;2022-11-09T04:03:04;46.66;37.46;52.42;;
72686;Laerm;61365;52.162;4.500;2022-11-09T04:05:30;46.88;37.92;52.12;;
72686;Laerm;61365;52.162;4.500;2022-11-09T04:07:57;46.60;37.25;51.87;;
72686;Laerm;61365;52.162;4.500;2022-11-09T04:10:25;46.49;37.77;51.93;;
72686;Laerm;61365;52.162;4.500;2022-11-09T04:12:52;46.55;37.41;52.03;;
72686;Laerm;61365;52.162;4.500;2022-11-09T04:15:19;46.57;37.50;51.87;;
72686;Laerm;61365;52.162;4.500;2022-11-09T04:17:57;46.61;36.58;52.50;;
72686;Laerm;61365;52.162;4.500;2022-11-09T04:20:25;46.59;36.07;52.98;;
72686;Laerm;61365;52.162;4.500;2022-11-09T04:23:00;46.82;38.27;51.68;;
72686;Laerm;61365;52.162;4.500;2022-11-09T04:25:31;46.74;35.98;52.17;;
72686;Laerm;61365;52.162;4.500;2022-11-09T04:27:59;46.84;38.18;52.62;;
72686;Laerm;61365;52.162;4.500;2022-11-09T04:30:28;46.75;37.72;52.49;;
72686;Laerm;61365;52.162;4.500;2022-11-09T04:32:59;46.69;36.83;52.09;;
72686;Laerm;61365;52.162;4.500;2022-11-09T04:35:28;46.59;37.41;52.50;;
72686;Laerm;61365;52.162;4.500;2022-11-09T04:37:57;46.75;37.53;52.35;;
72686;Laerm;61365;52.162;4.500;2022-11-09T04:40:27;46.67;36.14;52.11;;
72686;Laerm;61365;52.162;4.500;2022-11-09T04:42:54;46.56;37.37;52.68;;
72686;Laerm;61365;52.162;4.500;2022-11-09T04:45:23;46.53;37.84;52.15;;
72686;Laerm;61365;52.162;4.500;2022-11-09T04:47:50;46.43;33.98;52.54;;
72686;Laerm;61365;52.162;4.500;2022-11-09T04:50:16;46.54;37.80;52.34;;
72686;Laerm;61365;52.162;4.500;2022-11-09T04:52:42;46.35;37.66;53.03;;
72686;Laerm;61365;52.162;4.500;2022-11-09T04:55:09;46.47;36.76;54.63;;
72686;Laerm;61365;52.162;4.500;2022-11-09T04:57:35;46.52;36.58;53.05;;
72686;Laerm;61365;52.162;4.500;2022-11-09T05:00:01;46.68;36.83;52.55;;
72686;Laerm;61365;52.162;4.500;2022-11-09T05:02:28;46.99;37.55;53.59;;
72686;Laerm;61365;52.162;4.500;2022-11-09T05:04:54;47.12;37.66;52.80;;
72686;Laerm;61365;52.162;4.500;2022-11-09T05:07:20;46.72;35.79;52.56;;
72686;Laerm;61365;52.162;4.500;2022-11-09T05:09:46;46.95;37.41;52.52;;
72686;Laerm;61365;52.162;4.500;2022-11-09T05:12:13;46.65;36.24;52.40;;
72686;Laerm;61365;52.162;4.500;2022-11-09T05:14:39;46.47;36.81;53.00;;
72686;Laerm;61365;52.162;4.500;2022-11-09T05:17:05;46.65;36.44;52.52;;
72686;Laerm;61365;52.162;4.500;2022-11-09T05:19:34;46.92;36.88;52.96;;
72686;Laerm;61365;52.162;4.500;2022-11-09T05:22:00;46.67;35.52;53.31;;
72686;Laerm;61365;52.162;4.500;2022-11-09T05:24:46;46.72;37.10;53.09;;
72686;Laerm;61365;52.162;4.500;2022-11-09T05:27:13;46.69;35.10;52.58;;
72686;Laerm;61365;52.162;4.500;2022-11-09T05:29:39;46.86;34.82;52.61;;
72686;Laerm;61365;52.162;4.500;2022-11-09T05:32:05;46.74;36.94;52.18;;
72686;Laerm;61365;52.162;4.500;2022-11-09T05:34:32;46.62;35.98;52.75;;
72686;Laerm;61365;52.162;4.500;2022-11-09T05:36:58;46.58;37.20;52.10;;
72686;Laerm;61365;52.162;4.500;2022-11-09T05:39:24;46.39;36.14;51.85;;
72686;Laerm;61365;52.162;4.500;2022-11-09T05:41:51;46.42;35.90;52.07;;
72686;Laerm;61365;52.162;4.500;2022-11-09T05:44:17;46.46;36.39;53.84;;
72686;Laerm;61365;52.162;4.500;2022-11-09T05:46:43;46.47;37.12;53.30;;
72686;Laerm;61365;52.162;4.500;2022-11-09T05:49:09;46.62;37.11;53.56;;
72686;Laerm;61365;52.162;4.500;2022-11-09T05:51:36;46.63;37.92;52.16;;
72686;Laerm;61365;52.162;4.500;2022-11-09T05:54:02;46.40;35.49;51.63;;
72686;Laerm;61365;52.162;4.500;2022-11-09T05:56:29;46.35;37.82;51.82;;
72686;Laerm;61365;52.162;4.500;2022-11-09T05:58:55;46.79;36.82;52.33;;
72686;Laerm;61365;52.162;4.500;2022-11-09T06:01:22;46.44;36.58;52.51;;
72686;Laerm;61365;52.162;4.500;2022-11-09T06:03:49;46.38;36.38;52.22;;
72686;Laerm;61365;52.162;4.500;2022-11-09T06:06:18;46.45;35.68;52.53;;
72686;Laerm;61365;52.162;4.500;2022-11-09T06:08:44;46.73;36.62;52.95;;
72686;Laerm;61365;52.162;4.500;2022-11-09T06:11:12;46.53;35.27;52.41;;
72686;Laerm;61365;52.162;4.500;2022-11-09T06:13:39;46.77;37.42;52.99;;
72686;Laerm;61365;52.162;4.500;2022-11-09T06:16:06;46.62;34.89;53.95;;
72686;Laerm;61365;52.162;4.500;2022-11-09T06:18:35;46.66;36.19;52.88;;
72686;Laerm;61365;52.162;4.500;2022-11-09T06:21:04;46.58;37.08;52.79;;
72686;Laerm;61365;52.162;4.500;2022-11-09T06:23:31;46.23;35.62;52.32;;
72686;Laerm;61365;52.162;4.500;2022-11-09T06:26:05;46.57;37.84;52.90;;
72686;Laerm;61365;52.162;4.500;2022-11-09T06:28:32;46.43;35.44;52.69;;
72686;Laerm;61365;52.162;4.500;2022-11-09T06:31:01;46.33;35.56;52.31;;
72686;Laerm;61365;52.162;4.500;2022-11-09T06:33:33;46.33;36.42;52.88;;
72686;Laerm;61365;52.162;4.500;2022-11-09T06:36:00;46.38;36.95;52.27;;
72686;Laerm;61365;52.162;4.500;2022-11-09T06:38:27;46.39;36.03;52.28;;
72686;Laerm;61365;52.162;4.500;2022-11-09T06:40:56;46.38;36.12;52.20;;
72686;Laerm;61365;52.162;4.500;2022-11-09T06:43:23;46.41;35.36;52.83;;
72686;Laerm;61365;52.162;4.500;2022-11-09T06:45:50;46.42;37.20;51.81;;
72686;Laerm;61365;52.162;4.500;2022-11-09T06:48:17;46.44;34.78;52.17;;
72686;Laerm;61365;52.162;4.500;2022-11-09T06:50:44;46.52;36.11;52.44;;
72686;Laerm;61365;52.162;4.500;2022-11-09T06:53:12;46.34;35.89;51.96;;
72686;Laerm;61365;52.162;4.500;2022-11-09T06:55:40;46.83;36.93;53.32;;
72686;Laerm;61365;52.162;4.500;2022-11-09T06:58:10;46.66;35.64;52.96;;
72686;Laerm;61365;52.162;4.500;2022-11-09T07:00:37;46.79;36.26;52.47;;
72686;Laerm;61365;52.162;4.500;2022-11-09T07:03:03;46.83;36.33;52.91;;
72686;Laerm;61365;52.162;4.500;2022-11-09T07:05:30;46.97;36.70;52.99;;
72686;Laerm;61365;52.162;4.500;2022-11-09T07:07:56;46.93;36.57;52.84;;
72686;Laerm;61365;52.162;4.500;2022-11-09T07:10:23;46.93;36.64;52.73;;
72686;Laerm;61365;52.162;4.500;2022-11-09T07:12:50;46.94;37.14;53.17;;
72686;Laerm;61365;52.162;4.500;2022-11-09T07:15:16;47.00;36.50;54.19;;
72686;Laerm;61365;52.162;4.500;2022-11-09T07:17:43;46.95;36.17;52.65;;
72686;Laerm;61365;52.162;4.500;2022-11-09T07:20:10;46.87;35.49;53.65;;
72686;Laerm;61365;52.162;4.500;2022-11-09T07:22:37;46.97;37.34;52.66;;
72686;Laerm;61365;52.162;4.500;2022-11-09T07:25:07;46.95;36.51;52.71;;
72686;Laerm;61365;52.162;4.500;2022-11-09T07:27:34;47.34;36.61;54.36;;
72686;Laerm;61365;52.162;4.500;2022-11-09T07:30:01;47.57;36.33;52.67;;
72686;Laerm;61365;52.162;4.500;2022-11-09T07:32:35;47.66;38.08;52.93;;
72686;Laerm;61365;52.162;4.500;2022-11-09T07:35:03;47.33;36.69;52.59;;
72686;Laerm;61365;52.162;4.500;2022-11-09T07:37:31;46.80;36.97;52.86;;
72686;Laerm;61365;52.162;4.500;2022-11-09T07:39:57;46.46;36.85;52.20;;
72686;Laerm;61365;52.162;4.500;2022-11-09T07:42:24;46.43;36.44;52.01;;
72686;Laerm;61365;52.162;4.500;2022-11-09T07:44:51;46.44;37.88;52.25;;
72686;Laerm;61365;52.162;4.500;2022-11-09T07:47:19;46.56;37.18;52.33;;
72686;Laerm;61365;52.162;4.500;2022-11-09T07:49:45;46.64;37.13;52.41;;
72686;Laerm;61365;52.162;4.500;2022-11-09T07:52:12;46.98;36.39;52.81;;
72686;Laerm;61365;52.162;4.500;2022-11-09T07:54:39;46.68;36.36;52.28;;
72686;Laerm;61365;52.162;4.500;2022-11-09T07:57:05;46.76;37.26;52.27;;
72686;Laerm;61365;52.162;4.500;2022-11-09T07:59:32;46.60;37.92;52.66;;
72686;Laerm;61365;52.162;4.500;2022-11-09T08:01:59;46.62;36.43;52.45;;
72686;Laerm;61365;52.162;4.500;2022-11-09T08:04:25;46.67;37.81;52.33;;
72686;Laerm;61365;52.162;4.500;2022-11-09T08:06:52;46.70;37.95;52.04;;
72686;Laerm;61365;52.162;4.500;2022-11-09T08:09:19;46.58;36.19;52.98;;
72686;Laerm;61365;52.162;4.500;2022-11-09T08:11:45;46.39;37.28;51.70;;
72686;Laerm;61365;52.162;4.500;2022-11-09T08:14:12;46.50;36.16;52.42;;
72686;Laerm;61365;52.162;4.500;2022-11-09T08:16:38;46.74;38.16;52.95;;
72686;Laerm;61365;52.162;4.500;2022-11-09T08:19:05;46.79;37.90;52.12;;
72686;Laerm;61365;52.162;4.500;2022-11-09T08:21:35;46.71;36.69;52.56;;
72686;Laerm;61365;52.162;4.500;2022-11-09T08:24:03;46.46;36.98;52.13;;
72686;Laerm;61365;52.162;4.500;2022-11-09T08:26:31;46.68;37.24;52.65;;
72686;Laerm;61365;52.162;4.500;2022-11-09T08:28:58;46.63;38.31;52.24;;
72686;Laerm;61365;52.162;4.500;2022-11-09T08:31:24;46.72;36.55;52.45;;
72686;Laerm;61365;52.162;4.500;2022-11-09T08:33:51;46.53;35.98;51.83;;
72686;Laerm;61365;52.162;4.500;2022-11-09T08:36:18;46.49;37.55;52.58;;
72686;Laerm;61365;52.162;4.500;2022-11-09T08:38:44;46.60;36.96;52.45;;
72686;Laerm;61365;52.162;4.500;2022-11-09T08:41:12;46.72;37.50;55.69;;
72686;Laerm;61365;52.162;4.500;2022-11-09T08:43:38;47.10;37.43;52.30;;
72686;Laerm;61365;52.162;4.500;2022-11-09T08:46:05;47.02;37.89;52.32;;
72686;Laerm;61365;52.162;4.500;2022-11-09T08:48:31;46.95;37.08;52.32;;
72686;Laerm;61365;52.162;4.500;2022-11-09T08:50:59;46.49;37.34;52.84;;
72686;Laerm;61365;52.162;4.500;2022-11-09T08:53:27;46.27;37.15;51.76;;
72686;Laerm;61365;52.162;4.500;2022-11-09T08:55:54;46.23;36.38;52.11;;
72686;Laerm;61365;52.162;4.500;2022-11-09T08:58:21;46.61;38.19;52.36;;
72686;Laerm;61365;52.162;4.500;2022-11-09T09:00:47;46.69;37.32;51.78;;
72686;Laerm;61365;52.162;4.500;2022-11-09T09:03:14;46.79;37.94;52.18;;
72686;Laerm;61365;52.162;4.500;2022-11-09T09:05:40;46.96;38.45;52.35;;
72686;Laerm;61365;52.162;4.500;2022-11-09T09:08:06;46.93;37.74;52.92;;
72686;Laerm;61365;52.162;4.500;2022-11-09T09:10:33;47.16;37.00;53.00;;
72686;Laerm;61365;52.162;4.500;2022-11-09T09:13:02;46.57;35.76;52.07;;
72686;Laerm;61365;52.162;4.500;2022-11-09T09:15:29;46.62;37.37;51.78;;
72686;Laerm;61365;52.162;4.500;2022-11-09T09:17:59;46.61;36.91;52.31;;
72686;Laerm;61365;52.162;4.500;2022-11-09T09:20:27;46.81;37.76;51.68;;
72686;Laerm;61365;52.162;4.500;2022-11-09T09:22:56;46.68;36.65;52.45;;
72686;Laerm;61365;52.162;4.500;2022-11-09T09:25:23;46.70;37.24;51.79;;
72686;Laerm;61365;52.162;4.500;2022-11-09T09:27:49;46.64;38.15;52.15;;
72686;Laerm;61365;52.162;4.500;2022-11-09T09:30:16;46.68;37.48;52.38;;
72686;Laerm;61365;52.162;4.500;2022-11-09T09:32:42;46.82;38.80;52.09;;
72686;Laerm;61365;52.162;4.500;2022-11-09T09:35:10;46.81;36.72;51.97;;
72686;Laerm;61365;52.162;4.500;2022-11-09T09:37:36;46.81;37.71;52.59;;
72686;Laerm;61365;52.162;4.500;2022-11-09T09:40:03;46.79;38.71;52.77;;
72686;Laerm;61365;52.162;4.500;2022-11-09T09:42:35;46.62;38.73;52.10;;
72686;Laerm;61365;52.162;4.500;2022-11-09T09:45:04;46.57;36.83;52.37;;
72686;Laerm;61365;52.162;4.500;2022-11-09T09:47:56;46.69;36.96;52.44;;
72686;Laerm;61365;52.162;4.500;2022-11-09T09:50:31;46.84;36.69;52.22;;
72686;Laerm;61365;52.162;4.500;2022-11-09T10:01:42;47.08;38.71;52.07;;
72686;Laerm;61365;52.162;4.500;2022-11-09T10:04:36;46.89;37.80;51.91;;
72686;Laerm;61365;52.162;4.500;2022-11-09T10:10:40;46.77;37.96;52.14;;
72686;Laerm;61365;52.162;4.500;2022-11-09T10:13:26;46.72;38.38;52.08;;
72686;Laerm;61365;52.162;4.500;2022-11-09T10:16:53;46.52;38.01;52.84;;
72686;Laerm;61365;52.162;4.500;2022-11-09T10:19:24;46.58;36.92;54.60;;
72686;Laerm;61365;52.162;4.500;2022-11-09T10:22:13;46.65;37.68;52.12;;
72686;Laerm;61365;52.162;4.500;2022-11-09T10:25:14;46.39;38.58;51.95;;
72686;Laerm;61365;52.162;4.500;2022-11-09T10:27:57;46.46;36.63;52.93;;
72686;Laerm;61365;52.162;4.500;2022-11-09T10:30:27;46.54;38.38;52.25;;
72686;Laerm;61365;52.162;4.500;2022-11-09T10:33:15;46.81;37.44;52.04;;
72686;Laerm;61365;52.162;4.500;2022-11-09T10:35:46;46.83;38.05;52.35;;
72686;Laerm;61365;52.162;4.500;2022-11-09T10:38:28;46.78;37.15;52.10;;
72686;Laerm;61365;52.162;4.500;2022-11-09T10:41:06;46.78;38.19;52.06;;
72686;Laerm;61365;52.162;4.500;2022-11-09T10:43:37;46.76;35.76;51.91;;
72686;Laerm;61365;52.162;4.500;2022-11-09T10:46:07;46.72;37.60;51.73;;
72686;Laerm;61365;52.162;4.500;2022-11-09T10:48:37;46.98;38.27;51.89;;
72686;Laerm;61365;52.162;4.500;2022-11-09T10:51:05;46.75;37.76;52.08;;
72686;Laerm;61365;52.162;4.500;2022-11-09T10:54:33;46.86;37.58;52.90;;
72686;Laerm;61365;52.162;4.500;2022-11-09T10:57:21;46.92;37.98;52.51;;
72686;Laerm;61365;52.162;4.500;2022-11-09T10:59:56;47.14;37.57;52.70;;
72686;Laerm;61365;52.162;4.500;2022-11-09T11:07:33;46.82;38.57;52.21;;
72686;Laerm;61365;52.162;4.500;2022-11-09T11:13:11;46.98;38.60;52.01;;
72686;Laerm;61365;52.162;4.500;2022-11-09T11:15:42;46.93;37.63;51.94;;
72686;Laerm;61365;52.162;4.500;2022-11-09T11:18:22;46.80;38.14;51.94;;
72686;Laerm;61365;52.162;4.500;2022-11-09T11:21:17;46.87;39.25;52.78;;
72686;Laerm;61365;52.162;4.500;2022-11-09T11:23:44;47.01;39.25;52.27;;
72686;Laerm;61365;52.162;4.500;2022-11-09T11:32:14;46.60;38.46;51.77;;
72686;Laerm;61365;52.162;4.500;2022-11-09T11:34:41;46.82;39.07;52.48;;
72686;Laerm;61365;52.162;4.500;2022-11-09T11:40:04;46.75;38.72;51.69;;
72686;Laerm;61365;52.162;4.500;2022-11-09T11:43:05;46.79;39.20;52.40;;
72686;Laerm;61365;52.162;4.500;2022-11-09T12:07:21;46.28;39.04;51.32;;
72686;Laerm;61365;52.162;4.500;2022-11-09T12:13:06;46.46;39.40;51.53;;
72686;Laerm;61365;52.162;4.500;2022-11-09T12:15:55;46.67;40.45;51.22;;
72686;Laerm;61365;52.162;4.500;2022-11-09T12:19:34;46.66;38.63;51.90;;
72686;Laerm;61365;52.162;4.500;2022-11-09T12:21:52;46.56;39.03;51.64;;
72686;Laerm;61365;52.162;4.500;2022-11-09T12:24:31;46.87;39.08;51.56;;
72686;Laerm;61365;52.162;4.500;2022-11-09T12:27:44;46.89;38.49;51.55;;
72686;Laerm;61365;52.162;4.500;2022-11-09T12:30:20;46.74;39.88;51.58;;
72686;Laerm;61365;52.162;4.500;2022-11-09T12:32:57;46.87;41.08;51.29;;
72686;Laerm;61365;52.162;4.500;2022-11-09T12:40:55;46.42;39.93;51.19;;
72686;Laerm;61365;52.162;4.500;2022-11-09T12:44:08;46.53;39.40;51.85;;
72686;Laerm;61365;52.162;4.500;2022-11-09T12:46:45;46.46;40.15;51.58;;
72686;Laerm;61365;52.162;4.500;2022-11-09T12:49:43;46.68;40.77;51.24;;
72686;Laerm;61365;52.162;4.500;2022-11-09T12:52:14;46.83;40.04;54.54;;
72686;Laerm;61365;52.162;4.500;2022-11-09T12:54:48;46.75;39.79;51.49;;
72686;Laerm;61365;52.162;4.500;2022-11-09T12:57:27;46.72;40.58;51.77;;
72686;Laerm;61365;52.162;4.500;2022-11-09T12:59:59;46.74;38.58;52.01;;
72686;Laerm;61365;52.162;4.500;2022-11-09T13:05:04;46.74;40.53;51.35;;
72686;Laerm;61365;52.162;4.500;2022-11-09T13:07:58;46.61;39.93;51.69;;
72686;Laerm;61365;52.162;4.500;2022-11-09T13:10:35;46.93;40.04;51.43;;
72686;Laerm;61365;52.162;4.500;2022-11-09T13:15:39;46.79;40.46;51.49;;
72686;Laerm;61365;52.162;4.500;2022-11-09T13:18:48;46.56;39.79;51.15;;
72686;Laerm;61365;52.162;4.500;2022-11-09T13:23:52;46.76;40.41;51.68;;
72686;Laerm;61365;52.162;4.500;2022-11-09T13:29:29;47.20;41.05;52.66;;
72686;Laerm;61365;52.162;4.500;2022-11-09T13:34:53;46.74;40.58;51.04;;
72686;Laerm;61365;52.162;4.500;2022-11-09T13:45:47;46.95;41.04;51.84;;
72686;Laerm;61365;52.162;4.500;2022-11-09T13:51:15;46.91;40.54;51.66;;
72686;Laerm;61365;52.162;4.500;2022-11-09T13:54:03;46.69;40.28;51.90;;
72686;Laerm;61365;52.162;4.500;2022-11-09T13:59:36;46.89;38.41;51.64;;
72686;Laerm;61365;52.162;4.500;2022-11-09T14:02:31;46.86;40.76;51.24;;
72686;Laerm;61365;52.162;4.500;2022-11-09T14:04:57;46.65;40.56;51.03;;
72686;Laerm;61365;52.162;4.500;2022-11-09T14:07:31;46.78;40.59;52.37;;
72686;Laerm;61365;52.162;4.500;2022-11-09T14:10:22;46.84;40.25;51.28;;
72686;Laerm;61365;52.162;4.500;2022-11-09T14:24:15;46.63;39.77;51.47;;
72686;Laerm;61365;52.162;4.500;2022-11-09T14:27:13;46.66;40.27;50.72;;
72686;Laerm;61365;52.162;4.500;2022-11-09T14:32:34;46.44;40.25;51.31;;
72686;Laerm;61365;52.162;4.500;2022-11-09T14:37:58;46.46;40.60;50.62;;
72686;Laerm;61365;52.162;4.500;2022-11-09T14:40:30;46.64;39.74;51.87;;
72686;Laerm;61365;52.162;4.500;2022-11-09T14:43:24;46.77;40.32;52.81;;
72686;Laerm;61365;52.162;4.500;2022-11-09T14:45:59;46.68;41.28;51.39;;
72686;Laerm;61365;52.162;4.500;2022-11-09T14:48:28;46.71;39.61;51.20;;
72686;Laerm;61365;52.162;4.500;2022-11-09T14:51:01;46.60;41.37;50.83;;
72686;Laerm;61365;52.162;4.500;2022-11-09T14:53:32;46.56;40.58;51.11;;
72686;Laerm;61365;52.162;4.500;2022-11-09T14:56:03;46.50;40.57;51.00;;
72686;Laerm;61365;52.162;4.500;2022-11-09T14:58:35;46.62;40.25;51.14;;
72686;Laerm;61365;52.162;4.500;2022-11-09T15:01:25;46.58;40.01;52.84;;
72686;Laerm;61365;52.162;4.500;2022-11-09T15:04:09;46.56;41.39;50.91;;
72686;Laerm;61365;52.162;4.500;2022-11-09T15:06:59;46.56;40.63;50.77;;
72686;Laerm;61365;52.162;4.500;2022-11-09T15:09:43;46.58;40.24;51.22;;
72686;Laerm;61365;52.162;4.500;2022-11-09T15:12:18;46.69;38.40;51.09;;
72686;Laerm;61365;52.162;4.500;2022-11-09T15:14:53;46.53;40.22;51.03;;
72686;Laerm;61365;52.162;4.500;2022-11-09T15:20:02;46.61;38.99;51.41;;
72686;Laerm;61365;52.162;4.500;2022-11-09T15:33:25;46.69;38.27;51.21;;
72686;Laerm;61365;52.162;4.500;2022-11-09T15:39:11;46.89;39.94;51.74;;
72686;Laerm;61365;52.162;4.500;2022-11-09T15:41:39;46.74;39.43;51.67;;
72686;Laerm;61365;52.162;4.500;2022-11-09T15:44:06;46.53;38.96;51.24;;
72686;Laerm;61365;52.162;4.500;2022-11-09T15:46:50;46.52;38.79;51.11;;
72686;Laerm;61365;52.162;4.500;2022-11-09T15:49:21;46.52;39.24;51.06;;
72686;Laerm;61365;52.162;4.500;2022-11-09T15:51:49;46.58;38.81;51.70;;
72686;Laerm;61365;52.162;4.500;2022-11-09T15:54:16;46.67;39.15;51.70;;
72686;Laerm;61365;52.162;4.500;2022-11-09T15:56:43;46.58;38.47;51.17;;
72686;Laerm;61365;52.162;4.500;2022-11-09T15:59:25;46.59;39.79;51.60;;
72686;Laerm;61365;52.162;4.500;2022-11-09T16:01:52;46.60;39.40;51.22;;
72686;Laerm;61365;52.162;4.500;2022-11-09T16:04:18;46.48;38.66;54.18;;
72686;Laerm;61365;52.162;4.500;2022-11-09T16:06:44;46.60;39.41;51.07;;
72686;Laerm;61365;52.162;4.500;2022-11-09T16:09:11;46.65;40.67;51.41;;
72686;Laerm;61365;52.162;4.500;2022-11-09T16:11:37;46.60;37.28;51.95;;
72686;Laerm;61365;52.162;4.500;2022-11-09T16:14:04;46.60;40.16;51.81;;
72686;Laerm;61365;52.162;4.500;2022-11-09T16:16:30;46.60;39.74;51.25;;
72686;Laerm;61365;52.162;4.500;2022-11-09T16:18:57;46.54;39.94;51.06;;